Time;durP1;ratioP1;P1;durP2;ratioP2;P2;SDS_P1;SDS_P2;PMS_P1;PMS_P2;Temp;Humidity;BMP_temperature;BMP_pressure;BME280_temperature;BME280_humidity;BME280_pressure;Samples;Min_cycle;Max_cycle;Signal;HPM_P1;HPM_P2
2021/11/15 00:02:27;;;;;;;23.27;11.57;;;;;;;12.79;62.20;100742.00;5009460;28;20474;-59
2021/11/15 00:04:56;;;;;;;23.63;11.10;;;;;;;12.72;62.74;100747.91;5010601;28;20057;-59
2021/11/15 00:07:23;;;;;;;27.00;12.07;;;;;;;12.73;62.01;100726.31;5009806;28;20077;-62
2021/11/15 00:09:50;;;;;;;21.23;11.67;;;;;;;12.74;62.17;100739.19;5007082;28;20049;-61
2021/11/15 00:12:17;;;;;;;24.50;13.00;;;;;;;12.69;61.91;100719.63;5004923;28;20046;-62
2021/11/15 00:14:45;;;;;;;21.03;11.60;;;;;;;12.74;62.06;100739.19;5008943;28;20078;-61
2021/11/15 00:17:12;;;;;;;20.87;11.13;;;;;;;12.59;62.42;100730.91;5003500;28;20084;-68
2021/11/15 00:19:39;;;;;;;23.90;10.77;;;;;;;12.48;62.68;100733.78;5006524;28;20077;-67
2021/11/15 00:22:07;;;;;;;22.37;11.57;;;;;;;12.50;62.73;100739.91;5003787;28;20074;-67
2021/11/15 00:24:34;;;;;;;21.30;11.40;;;;;;;12.48;62.72;100732.94;5006343;28;20080;-65
2021/11/15 00:27:01;;;;;;;22.77;10.60;;;;;;;12.46;62.67;100744.41;5003336;28;20597;-62
2021/11/15 00:29:28;;;;;;;15.33;10.27;;;;;;;12.25;63.10;100721.28;5000746;28;20042;-60
2021/11/15 00:31:55;;;;;;;18.07;10.83;;;;;;;12.33;63.18;100736.66;4993097;28;20077;-62
2021/11/15 00:34:22;;;;;;;23.97;12.57;;;;;;;12.27;63.25;100734.97;5009400;28;20128;-62
2021/11/15 00:36:49;;;;;;;17.87;9.80;;;;;;;12.23;63.51;100733.91;5003425;28;20144;-61
2021/11/15 00:39:16;;;;;;;18.77;10.17;;;;;;;12.13;63.66;100740.38;5004055;28;20100;-63
2021/11/15 00:41:44;;;;;;;11.80;8.10;;;;;;;11.99;63.58;100728.94;5002436;28;20405;-63
2021/11/15 00:44:11;;;;;;;14.23;8.33;;;;;;;11.88;64.35;100744.13;5011896;28;20077;-63
2021/11/15 00:46:39;;;;;;;21.83;9.17;;;;;;;11.73;64.34;100730.16;5008133;28;20137;-64
2021/11/15 00:49:05;;;;;;;18.00;8.80;;;;;;;11.65;64.56;100731.53;5012305;28;20041;-64
2021/11/15 00:51:32;;;;;;;21.33;9.97;;;;;;;11.67;64.47;100736.88;4994130;28;20136;-64
2021/11/15 00:53:59;;;;;;;14.63;9.27;;;;;;;11.58;64.64;100734.63;5004190;28;20101;-65
2021/11/15 00:56:26;;;;;;;16.97;9.90;;;;;;;11.29;64.72;100703.66;4997135;28;20077;-64
2021/11/15 00:58:53;;;;;;;16.03;9.40;;;;;;;11.51;64.97;100739.69;5007513;28;20132;-64
2021/11/15 01:01:20;;;;;;;23.67;11.47;;;;;;;11.53;64.84;100737.47;5007997;28;20084;-63
2021/11/15 01:03:48;;;;;;;16.90;10.73;;;;;;;11.52;64.37;100724.59;5009582;28;20038;-63
2021/11/15 01:06:16;;;;;;;17.27;9.53;;;;;;;11.58;64.25;100709.47;5007918;28;20061;-64
2021/11/15 01:08:42;;;;;;;17.37;10.07;;;;;;;11.60;63.80;100707.22;5006316;28;20458;-64
2021/11/15 01:11:09;;;;;;;16.80;9.50;;;;;;;11.68;64.10;100724.56;5006872;28;20510;-64
2021/11/15 01:13:37;;;;;;;18.23;9.67;;;;;;;11.68;64.35;100727.34;5002478;28;20093;-64
2021/11/15 01:16:07;;;;;;;18.83;10.00;;;;;;;11.72;64.71;100728.44;5006612;28;20517;-64
2021/11/15 01:18:39;;;;;;;20.23;11.23;;;;;;;11.65;64.77;100716.72;5010484;28;20077;-63
2021/11/15 01:21:06;;;;;;;19.90;11.00;;;;;;;11.75;64.31;100716.69;4998687;28;20124;-63
2021/11/15 01:23:34;;;;;;;18.43;11.20;;;;;;;11.77;64.26;100720.06;5029817;28;20045;-65
2021/11/15 01:26:00;;;;;;;20.30;11.27;;;;;;;11.77;64.18;100715.28;5029070;28;20089;-59
2021/11/15 01:28:28;;;;;;;15.40;9.10;;;;;;;11.80;64.16;100716.69;5028013;28;20233;-59
2021/11/15 01:30:54;;;;;;;19.07;11.03;;;;;;;11.83;64.27;100713.34;5032009;28;20116;-59
2021/11/15 01:33:21;;;;;;;20.27;11.80;;;;;;;11.94;63.40;100703.78;5031284;28;20061;-60
2021/11/15 01:35:48;;;;;;;16.23;9.63;;;;;;;12.07;63.02;100713.56;5023982;28;20092;-60
2021/11/15 01:38:15;;;;;;;17.50;10.37;;;;;;;12.08;63.25;100713.25;5021544;28;20133;-62
2021/11/15 01:40:42;;;;;;;17.67;9.07;;;;;;;11.96;63.35;100711.91;5030080;28;20145;-59
2021/11/15 01:43:09;;;;;;;12.87;8.83;;;;;;;11.85;63.33;100700.75;5037967;28;20700;-60
2021/11/15 01:45:38;;;;;;;17.47;10.00;;;;;;;11.75;63.63;100697.13;5024426;28;20132;-60
2021/11/15 01:48:07;;;;;;;19.80;9.00;;;;;;;11.68;64.20;100716.16;5025068;28;20494;-60
2021/11/15 01:50:36;;;;;;;17.27;9.60;;;;;;;11.56;64.34;100708.94;5021640;28;20536;-60
2021/11/15 01:53:05;;;;;;;14.93;9.07;;;;;;;11.47;64.32;100709.78;5025227;28;20417;-61
2021/11/15 01:55:32;;;;;;;13.63;8.77;;;;;;;11.45;64.48;100712.00;5031029;28;20049;-61
2021/11/15 01:58:03;;;;;;;17.60;10.13;;;;;;;11.34;64.54;100708.41;5023752;28;20129;-61
2021/11/15 02:00:36;;;;;;;19.47;8.70;;;;;;;11.21;64.93;100703.38;5016852;28;20518;-60
2021/11/15 02:03:04;;;;;;;21.33;9.70;;;;;;;11.18;64.95;100707.59;5016795;28;20414;-64
2021/11/15 02:05:31;;;;;;;17.97;8.10;;;;;;;11.15;64.46;100700.59;5024058;28;20124;-60
2021/11/15 02:07:57;;;;;;;14.57;8.43;;;;;;;11.26;64.43;100708.97;5026362;28;20077;-61
2021/11/15 02:10:25;;;;;;;17.67;9.63;;;;;;;11.22;64.41;100703.13;5029232;28;20065;-63
2021/11/15 02:12:51;;;;;;;17.87;9.47;;;;;;;11.32;64.19;100705.06;5029849;28;20152;-62
2021/11/15 02:15:19;;;;;;;18.13;8.77;;;;;;;11.37;64.18;100702.25;5031083;28;20081;-63
2021/11/15 02:17:47;;;;;;;21.30;10.00;;;;;;;11.36;64.06;100703.38;5034574;28;20128;-62
2021/11/15 02:20:20;;;;;;;16.87;9.20;;;;;;;11.35;64.06;100701.69;5026333;28;20049;-67
2021/11/15 02:22:49;;;;;;;16.20;9.67;;;;;;;11.41;64.01;100692.16;5030828;28;20079;-65
2021/11/15 02:25:19;;;;;;;15.17;9.50;;;;;;;11.46;63.57;100692.16;5030314;28;20121;-68
2021/11/15 02:27:46;;;;;;;;;;;;;;;11.67;63.18;100708.91;5022788;28;20137;-67
2021/11/15 02:30:20;;;;;;;18.97;9.90;;;;;;;11.73;62.54;100700.22;5027203;28;20004;-67
2021/11/15 02:32:48;;;;;;;16.97;9.50;;;;;;;11.75;62.54;100700.75;5028673;28;20048;-64
2021/11/15 02:35:16;;;;;;;14.97;8.67;;;;;;;11.57;63.34;100710.59;5021559;28;20053;-67
2021/11/15 02:37:44;;;;;;;15.53;9.20;;;;;;;11.47;63.30;100713.41;5019741;28;20084;-67
2021/11/15 02:40:13;;;;;;;21.10;10.00;;;;;;;11.48;62.81;100715.06;5017385;28;20100;-66
2021/11/15 02:42:41;;;;;;;19.07;9.73;;;;;;;11.50;62.58;100715.66;5006458;28;20077;-63
2021/11/15 02:45:10;;;;;;;16.00;9.57;;;;;;;11.45;63.08;100707.25;5022564;28;20331;-62
2021/11/15 02:47:38;;;;;;;18.90;9.67;;;;;;;11.36;62.93;100708.97;5028469;28;20121;-64
2021/11/15 02:50:06;;;;;;;14.60;8.90;;;;;;;11.32;62.96;100713.44;5029347;28;20077;-64
2021/11/15 02:52:33;;;;;;;16.70;9.37;;;;;;;11.26;63.00;100700.59;5035344;28;20128;-65
2021/11/15 02:55:00;;;;;;;14.27;8.10;;;;;;;11.09;62.94;100690.53;5028120;28;20145;-62
2021/11/15 02:57:27;;;;;;;14.17;8.50;;;;;;;11.12;63.41;100711.50;5029882;28;20125;-62
2021/11/15 02:59:54;;;;;;;17.03;9.93;;;;;;;11.00;63.47;100700.59;5020339;28;20049;-61
2021/11/15 03:02:23;;;;;;;19.33;8.63;;;;;;;10.97;63.75;100700.31;5026514;28;20132;-62
2021/11/15 03:04:51;;;;;;;14.13;8.40;;;;;;;10.87;64.04;100688.06;5022787;28;20137;-62
2021/11/15 03:07:18;;;;;;;16.10;8.43;;;;;;;10.86;64.29;100693.91;5027871;28;20111;-62
2021/11/15 03:09:44;;;;;;;19.37;9.53;;;;;;;10.82;64.33;100690.00;5028167;28;20049;-62
2021/11/15 03:12:12;;;;;;;14.50;7.83;;;;;;;10.76;64.75;100688.31;5004558;28;20054;-61
2021/11/15 03:14:39;;;;;;;16.07;9.00;;;;;;;10.72;64.90;100687.19;5021675;28;20037;-61
2021/11/15 03:17:06;;;;;;;15.57;8.63;;;;;;;10.74;64.92;100688.59;5043058;28;20052;-61
2021/11/15 03:19:33;;;;;;;16.07;7.90;;;;;;;10.74;64.84;100694.19;5034615;28;20073;-61
2021/11/15 03:22:00;;;;;;;19.43;8.60;;;;;;;10.58;64.95;100676.56;5021365;28;20133;-60
2021/11/15 03:24:27;;;;;;;16.43;9.00;;;;;;;10.58;65.06;100678.53;5032121;28;20511;-61
2021/11/15 03:26:54;;;;;;;17.83;8.63;;;;;;;10.50;65.33;100674.34;5025138;28;20124;-60
2021/11/15 03:29:21;;;;;;;12.37;7.63;;;;;;;10.52;65.33;100694.41;5025536;28;20054;-62
2021/11/15 03:31:48;;;;;;;13.67;9.07;;;;;;;10.44;65.23;100681.03;5024773;28;20073;-61
2021/11/15 03:34:15;;;;;;;12.97;8.87;;;;;;;10.44;65.36;100687.44;5024656;28;20046;-60
2021/11/15 03:36:46;;;;;;;13.87;7.53;;;;;;;10.32;65.08;100669.25;5030499;28;20385;-60
2021/11/15 03:39:14;;;;;;;12.40;7.03;;;;;;;10.41;65.20;100687.16;5017947;28;20054;-60
2021/11/15 03:41:42;;;;;;;15.10;8.23;;;;;;;10.37;65.44;100686.03;5018884;28;20050;-61
2021/11/15 03:44:10;;;;;;;12.87;8.23;;;;;;;10.32;65.77;100699.97;5026604;28;20078;-60
2021/11/15 03:46:38;;;;;;;16.67;7.93;;;;;;;10.25;65.42;100677.03;5025166;28;20137;-60
2021/11/15 03:49:06;;;;;;;14.40;7.73;;;;;;;10.33;65.17;100705.28;5029303;28;20149;-59
2021/11/15 03:51:34;;;;;;;12.70;7.80;;;;;;;10.38;65.07;100702.50;5021500;28;20085;-62
2021/11/15 03:54:01;;;;;;;15.17;8.67;;;;;;;10.38;64.88;100698.88;5018411;28;20087;-61
2021/11/15 03:56:28;;;;;;;16.00;8.17;;;;;;;10.42;64.82;100700.00;5030859;28;20081;-60
2021/11/15 03:58:56;;;;;;;14.40;8.20;;;;;;;10.36;64.88;100687.16;5018004;28;20809;-61
2021/11/15 04:01:29;;;;;;;14.67;7.33;;;;;;;10.39;64.72;100694.94;5028086;28;20073;-62
2021/11/15 04:03:59;;;;;;;14.33;7.73;;;;;;;10.31;64.70;100684.34;5018191;28;20052;-60
2021/11/15 04:06:30;;;;;;;12.35;6.90;;;;;;;10.24;65.24;100701.31;5025149;28;20144;-60
2021/11/15 04:09:01;;;;;;;10.90;6.27;;;;;;;10.13;65.56;100692.06;5020926;28;20557;-61
2021/11/15 04:11:30;;;;;;;12.83;6.87;;;;;;;10.09;65.65;100701.28;5023557;28;20059;-61
2021/11/15 04:14:01;;;;;;;17.25;8.65;;;;;;;10.10;65.91;100703.78;5037223;28;20084;-63
2021/11/15 04:16:28;;;;;;;15.27;7.37;;;;;;;10.00;65.93;100684.22;5024895;28;20153;-61
2021/11/15 04:19:05;;;;;;;17.53;7.87;;;;;;;10.08;65.66;100700.41;5026789;28;20060;-61
2021/11/15 04:21:33;;;;;;;14.77;7.40;;;;;;;10.13;65.69;100702.41;5025356;28;20597;-61
2021/11/15 04:24:00;;;;;;;14.27;7.00;;;;;;;10.11;65.50;100707.41;5038183;28;20125;-61
2021/11/15 04:26:26;;;;;;;12.70;6.83;;;;;;;10.06;65.66;100711.03;5025866;28;20045;-61
2021/11/15 04:29:00;;;;;;;13.23;6.83;;;;;;;10.02;66.00;100703.50;5021362;28;20084;-60
2021/11/15 04:31:27;;;;;;;12.50;6.73;;;;;;;9.89;66.15;100697.28;5016247;28;20077;-60
2021/11/15 04:33:54;;;;;;;12.80;7.50;;;;;;;9.92;66.04;100704.28;5029749;28;20088;-59
2021/11/15 04:36:22;;;;;;;11.93;7.73;;;;;;;9.80;66.13;100678.56;5023736;28;20103;-63
2021/11/15 04:38:50;;;;;;;11.13;6.70;;;;;;;9.80;66.15;100686.94;5030262;28;20153;-63
2021/11/15 04:41:18;;;;;;;11.53;5.50;;;;;;;9.78;66.49;100686.34;5026985;28;20045;-63
2021/11/15 04:43:46;;;;;;;12.80;8.20;;;;;;;9.83;66.25;100698.38;5026189;28;20118;-62
2021/11/15 04:46:13;;;;;;;14.20;8.50;;;;;;;9.88;66.47;100694.75;5019192;28;20095;-59
2021/11/15 04:48:40;;;;;;;13.77;7.57;;;;;;;9.95;66.43;100710.16;5020490;28;20053;-60
2021/11/15 04:51:07;;;;;;;14.67;7.93;;;;;;;9.94;66.54;100700.09;5031821;28;20469;-61
2021/11/15 04:53:34;;;;;;;11.73;7.07;;;;;;;10.05;66.83;100709.38;5037348;28;20049;-61
2021/11/15 04:56:00;;;;;;;7.70;5.83;;;;;;;9.96;67.02;100674.72;5027178;28;20145;-59
2021/11/15 04:58:28;;;;;;;6.87;6.03;;;;;;;10.09;66.88;100696.53;5015420;28;20142;-59
2021/11/15 05:00:55;;;;;;;14.37;6.17;;;;;;;10.13;67.34;100697.66;5021898;28;20150;-59
2021/11/15 05:03:24;;;;;;;12.13;6.00;;;;;;;10.09;67.28;100688.16;5024791;28;20480;-58
2021/11/15 05:05:51;;;;;;;11.00;5.33;;;;;;;10.16;67.27;100694.31;5024545;28;20058;-58
2021/11/15 05:08:17;;;;;;;10.93;5.90;;;;;;;10.10;67.13;100692.63;5027507;28;20492;-60
2021/11/15 05:10:44;;;;;;;6.53;4.87;;;;;;;10.10;67.15;100687.03;5017342;28;20073;-59
2021/11/15 05:13:11;;;;;;;13.53;6.60;;;;;;;10.06;66.91;100693.47;5017834;28;20073;-60
2021/11/15 05:15:38;;;;;;;9.47;3.97;;;;;;;9.97;67.32;100693.13;5015668;28;20133;-60
2021/11/15 05:18:05;;;;;;;6.33;4.03;;;;;;;9.87;67.40;100693.94;5026800;28;20049;-60
2021/11/15 05:20:32;;;;;;;4.10;2.83;;;;;;;9.75;67.67;100675.75;5012255;28;20103;-60
2021/11/15 05:22:59;;;;;;;13.23;6.50;;;;;;;9.71;67.74;100673.50;5028051;28;20088;-60
2021/11/15 05:25:26;;;;;;;14.83;6.33;;;;;;;9.72;67.63;100686.34;5024961;28;20497;-60
2021/11/15 05:27:54;;;;;;;12.37;5.93;;;;;;;9.64;68.03;100681.28;5023157;28;20136;-60
2021/11/15 05:30:21;;;;;;;12.27;6.37;;;;;;;9.56;68.36;100679.00;5013294;28;20125;-60
2021/11/15 05:32:51;;;;;;;7.83;5.17;;;;;;;9.48;68.58;100679.53;5028762;28;20474;-59
2021/11/15 05:35:19;;;;;;;;;;;;;;;9.33;69.52;100676.63;5028776;28;20049;-58
2021/11/15 05:37:46;;;;;;;4.47;3.07;;;;;;;9.33;69.31;100687.78;5022107;28;19939;-58
2021/11/15 05:40:14;;;;;;;8.20;4.47;;;;;;;9.23;69.66;100681.06;5022693;28;20271;-58
2021/11/15 05:42:43;;;;;;;5.90;3.40;;;;;;;9.19;69.90;100687.41;5023410;28;20052;-58
2021/11/15 05:45:11;;;;;;;8.40;4.60;;;;;;;9.13;70.20;100683.78;5024999;28;20057;-59
2021/11/15 05:47:40;;;;;;;12.10;6.27;;;;;;;9.13;70.36;100689.34;5018964;28;20510;-58
2021/11/15 05:50:09;;;;;;;5.45;3.63;;;;;;;9.15;70.00;100687.09;5023929;28;20124;-61
2021/11/15 05:52:40;;;;;;;13.83;8.37;;;;;;;9.16;69.55;100666.53;5033265;28;20088;-62
2021/11/15 05:55:09;;;;;;;12.17;6.53;;;;;;;9.29;69.43;100683.84;5027499;28;20087;-61
2021/11/15 05:57:37;;;;;;;11.40;5.97;;;;;;;9.28;69.26;100680.25;5028335;28;20141;-60
2021/11/15 06:00:07;;;;;;;11.63;5.63;;;;;;;9.28;69.57;100683.03;5020940;28;20551;-61
2021/11/15 06:02:34;;;;;;;9.27;5.20;;;;;;;9.23;69.42;100685.75;5028161;28;20084;-62
2021/11/15 06:05:01;;;;;;;12.10;6.40;;;;;;;9.22;69.65;100698.84;5020793;28;20124;-60
2021/11/15 06:07:28;;;;;;;12.57;6.03;;;;;;;9.02;69.46;100665.28;5028484;28;20602;-55
2021/11/15 06:09:55;;;;;;;11.17;6.07;;;;;;;9.20;69.56;100695.53;5018857;28;20128;-63
2021/11/15 06:12:23;;;;;;;12.40;8.37;;;;;;;9.17;69.43;100696.06;5030601;28;20100;-57
2021/11/15 06:14:49;;;;;;;17.03;6.40;;;;;;;8.99;69.58;100685.31;5031242;28;20080;-51
2021/11/15 06:17:16;;;;;;;11.13;5.63;;;;;;;9.01;69.82;100705.41;5029974;28;20136;-54
2021/11/15 06:19:44;;;;;;;7.70;4.63;;;;;;;8.89;69.90;100696.38;5026036;28;20136;-57
2021/11/15 06:22:11;;;;;;;14.27;6.40;;;;;;;8.88;70.05;100708.63;5012394;28;20095;-54
2021/11/15 06:24:41;;;;;;;15.63;8.13;;;;;;;8.87;69.79;100710.56;5019487;28;20068;-57
2021/11/15 06:27:08;;;;;;;11.40;6.72;;;;;;;8.95;69.65;100715.66;5028718;28;20111;-61
2021/11/15 06:29:34;;;;;;;12.50;7.17;;;;;;;9.13;69.07;100727.50;5029842;28;20116;-59
2021/11/15 06:32:01;;;;;;;23.83;9.17;;;;;;;9.11;68.88;100708.25;5030585;28;20549;-59
2021/11/15 06:34:28;;;;;;;13.07;6.93;;;;;;;9.25;68.66;100726.19;5020324;28;20168;-61
2021/11/15 06:36:55;;;;;;;10.43;6.03;;;;;;;9.15;68.67;100709.41;5027304;28;20085;-60
2021/11/15 06:39:25;;;;;;;9.87;6.20;;;;;;;9.27;68.56;100713.97;5025505;28;20518;-60
2021/11/15 06:41:54;;;;;;;9.05;5.05;;;;;;;9.29;68.34;100700.59;5028724;28;20053;-61
2021/11/15 06:44:21;;;;;;;14.40;7.40;;;;;;;9.32;68.27;100705.63;5022935;28;20085;-59
2021/11/15 06:46:49;;;;;;;14.40;7.50;;;;;;;9.27;68.02;100700.03;5020578;28;20430;-60
2021/11/15 06:49:16;;;;;;;14.43;8.03;;;;;;;9.44;67.94;100723.84;5029038;28;20491;-60
2021/11/15 06:51:45;;;;;;;13.37;6.47;;;;;;;9.38;67.72;100710.13;5021914;28;20084;-58
2021/11/15 06:54:14;;;;;;;13.03;7.53;;;;;;;9.47;67.04;100702.94;5030303;28;20442;-58
2021/11/15 06:56:41;;;;;;;13.70;8.40;;;;;;;9.70;66.77;100715.59;5024927;28;20132;-58
2021/11/15 06:59:08;;;;;;;11.03;7.53;;;;;;;9.80;66.34;100714.81;5026863;28;20478;-58
2021/11/15 07:01:36;;;;;;;13.37;8.30;;;;;;;9.96;65.84;100725.78;5020549;28;20046;-58
2021/11/15 07:04:08;;;;;;;15.17;9.13;;;;;;;10.03;65.36;100738.63;5021197;28;20049;-58
2021/11/15 07:06:37;;;;;;;16.27;9.23;;;;;;;10.03;64.83;100739.47;5014860;28;20084;-58
2021/11/15 07:09:05;;;;;;;14.00;8.07;;;;;;;9.77;64.71;100693.03;5026563;28;20056;-57
2021/11/15 07:11:31;;;;;;;14.90;8.37;;;;;;;9.99;64.44;100738.34;5027209;28;20052;-57
2021/11/15 07:13:58;;;;;;;12.70;8.10;;;;;;;10.09;64.31;100760.72;5029012;28;20125;-57
2021/11/15 07:16:25;;;;;;;14.30;8.37;;;;;;;10.08;64.17;100756.22;5022018;28;20124;-58
2021/11/15 07:18:53;;;;;;;13.40;7.00;;;;;;;10.13;64.06;100763.81;5027291;28;20045;-57
2021/11/15 07:21:21;;;;;;;13.87;7.80;;;;;;;10.09;64.28;100763.50;5028906;28;20088;-56
2021/11/15 07:23:48;;;;;;;13.70;7.30;;;;;;;10.21;64.14;100778.06;5025287;28;21353;-56
2021/11/15 07:26:18;;;;;;;10.73;7.03;;;;;;;10.26;64.11;100784.81;5025172;28;20499;-55
2021/11/15 07:28:46;;;;;;;15.40;8.73;;;;;;;10.28;63.78;100779.78;5028467;28;20037;-55
2021/11/15 07:31:13;;;;;;;14.03;6.97;;;;;;;10.16;63.73;100757.69;5027121;28;20136;-56
2021/11/15 07:33:40;;;;;;;12.07;8.57;;;;;;;10.15;63.62;100761.56;5028845;28;20409;-56
2021/11/15 07:36:08;;;;;;;13.83;7.30;;;;;;;10.20;63.59;100770.78;5026848;28;20562;-55
2021/11/15 07:38:35;;;;;;;15.63;8.67;;;;;;;10.24;63.49;100787.00;5021256;28;20121;-57
2021/11/15 07:41:02;;;;;;;11.23;6.90;;;;;;;10.12;63.31;100774.13;5018448;28;20089;-56
2021/11/15 07:43:29;;;;;;;12.47;7.00;;;;;;;10.26;63.37;100784.81;5025796;28;20072;-56
2021/11/15 07:45:56;;;;;;;15.80;8.13;;;;;;;10.52;63.43;100800.53;5028048;28;20425;-56
2021/11/15 07:48:23;;;;;;;18.97;7.93;;;;;;;10.69;62.94;100797.50;5023810;28;20053;-53
2021/11/15 07:50:50;;;;;;;14.33;7.90;;;;;;;10.73;63.13;100784.66;5026565;28;20089;-57
2021/11/15 07:53:17;;;;;;;6.33;4.20;;;;;;;10.98;63.48;100800.66;4996436;28;20077;-58
2021/11/15 07:55:44;;;;;;;7.40;4.70;;;;;;;11.26;63.00;100798.44;5025349;28;20069;-57
2021/11/15 07:58:13;;;;;;;2.90;1.50;;;;;;;11.39;62.66;100792.28;5020637;28;20084;-55
2021/11/15 08:00:40;;;;;;;6.53;4.30;;;;;;;11.61;61.79;100811.56;5028171;28;20091;-57
2021/11/15 08:03:07;;;;;;;9.10;3.30;;;;;;;11.82;61.23;100806.78;5032898;28;20129;-57
2021/11/15 08:05:35;;;;;;;7.40;4.90;;;;;;;12.14;60.59;100800.03;5040011;28;20053;-57
2021/11/15 08:08:02;;;;;;;7.40;5.13;;;;;;;12.31;59.35;100808.91;5042509;28;20133;-57
2021/11/15 08:10:29;;;;;;;5.87;3.43;;;;;;;12.56;58.71;100799.56;5032802;28;20464;-58
2021/11/15 08:12:58;;;;;;;4.53;2.90;;;;;;;12.93;57.87;100827.09;5016030;28;20077;-56
2021/11/15 08:15:27;;;;;;;2.40;1.70;;;;;;;13.09;57.18;100818.56;5019877;28;20137;-56
2021/11/15 08:17:57;;;;;;;4.53;2.57;;;;;;;13.34;56.15;100806.38;5026529;28;20137;-56
2021/11/15 08:20:29;;;;;;;5.78;3.83;;;;;;;13.85;56.00;100820.78;5029920;28;20196;-56
2021/11/15 08:22:59;;;;;;;7.53;4.37;;;;;;;14.36;55.40;100823.03;5014432;28;20403;-55
2021/11/15 08:25:26;;;;;;;;;;;;;;;14.82;56.46;100838.47;5024172;28;20105;-55
2021/11/15 08:27:54;;;;;;;16.60;6.03;;;;;;;15.17;55.17;100842.75;5024128;28;20540;-56
2021/11/15 08:30:21;;;;;;;8.73;5.50;;;;;;;15.25;54.82;100825.19;5028533;28;20464;-56
2021/11/15 08:32:49;;;;;;;10.53;5.83;;;;;;;15.64;54.65;100838.06;5017878;28;20085;-60
2021/11/15 08:35:19;;;;;;;9.83;5.27;;;;;;;16.17;54.13;100842.47;5030823;28;20557;-55
2021/11/15 08:38:08;;;;;;;8.48;5.25;;;;;;;16.97;53.40;100835.50;5020914;28;20463;-56
2021/11/15 08:40:35;;;;;;;7.28;4.07;;;;;;;17.42;50.99;100827.09;5027730;28;20482;-55
2021/11/15 08:43:02;;;;;;;5.85;4.07;;;;;;;17.63;50.21;100842.34;5030562;28;20083;-55
2021/11/15 08:45:31;;;;;;;7.78;3.70;;;;;;;17.47;48.33;100813.69;5021703;28;20553;-56
2021/11/15 08:48:00;;;;;;;7.50;4.22;;;;;;;17.86;48.34;100822.59;5026902;28;20091;-55
2021/11/15 08:50:26;;;;;;;7.57;5.00;;;;;;;18.34;47.91;100816.19;5027287;28;20077;-55
2021/11/15 08:52:53;;;;;;;5.22;3.65;;;;;;;18.88;47.13;100825.38;5020511;28;20077;-56
2021/11/15 08:55:20;;;;;;;6.40;3.97;;;;;;;19.20;45.97;100826.06;5024803;28;20085;-55
2021/11/15 08:57:47;;;;;;;5.82;4.00;;;;;;;19.04;45.20;100786.09;5023593;28;20076;-57
2021/11/15 09:00:14;;;;;;;7.40;3.70;;;;;;;19.65;45.20;100806.75;5024754;28;20082;-56
2021/11/15 09:02:43;;;;;;;5.88;4.10;;;;;;;20.18;44.73;100799.78;5001477;28;20738;-57
2021/11/15 09:05:10;;;;;;;5.85;3.58;;;;;;;20.96;44.27;100830.63;5019000;28;20050;-57
2021/11/15 09:07:37;;;;;;;7.60;4.63;;;;;;;21.38;42.90;100846.88;5023484;28;20053;-56
2021/11/15 09:10:07;;;;;;;5.65;4.00;;;;;;;21.73;41.69;100827.50;5024643;28;20111;-56
2021/11/15 09:12:35;;;;;;;6.82;4.45;;;;;;;21.99;41.45;100833.75;5020842;28;20124;-56
2021/11/15 09:15:08;;;;;;;10.57;6.10;;;;;;;22.70;40.28;100832.56;5026198;28;20129;-57
2021/11/15 09:17:38;;;;;;;8.55;5.43;;;;;;;23.39;39.03;100833.56;5026695;28;20081;-62
2021/11/15 09:20:08;;;;;;;6.97;4.90;;;;;;;23.98;37.95;100842.59;5014491;28;20137;-62
2021/11/15 09:22:35;;;;;;;8.82;5.00;;;;;;;24.46;37.69;100832.09;5020258;28;20042;-61
2021/11/15 09:25:03;;;;;;;7.00;4.68;;;;;;;24.99;36.70;100841.16;5026785;28;20126;-58
2021/11/15 09:27:30;;;;;;;7.45;5.22;;;;;;;25.40;36.16;100836.84;5012531;28;20124;-59
2021/11/15 09:29:59;;;;;;;9.75;4.82;;;;;;;25.70;35.19;100847.69;5022752;28;20108;-59
2021/11/15 09:32:26;;;;;;;8.33;4.70;;;;;;;25.83;34.37;100840.63;5027891;28;20046;-60
2021/11/15 09:34:53;;;;;;;6.82;5.15;;;;;;;25.81;34.09;100831.59;5032585;28;20088;-61
2021/11/15 09:37:20;;;;;;;6.72;4.53;;;;;;;25.85;34.14;100825.97;5016299;28;20049;-63
2021/11/15 09:39:50;;;;;;;10.82;4.82;;;;;;;25.97;33.46;100832.31;5033569;28;20049;-62
2021/11/15 09:42:18;;;;;;;8.15;4.40;;;;;;;26.07;33.34;100835.78;5031074;28;20525;-59
2021/11/15 09:44:45;;;;;;;6.50;4.63;;;;;;;26.04;33.11;100851.66;5031629;28;20049;-59
2021/11/15 09:47:13;;;;;;;5.25;4.28;;;;;;;25.91;33.13;100838.72;5039073;28;20060;-59
2021/11/15 09:49:40;;;;;;;7.30;5.10;;;;;;;25.91;32.79;100841.59;5019075;28;20129;-63
2021/11/15 09:52:09;;;;;;;15.00;4.97;;;;;;;26.11;32.70;100840.34;5030010;28;20464;-60
2021/11/15 09:54:37;;;;;;;7.70;5.47;;;;;;;26.21;32.58;100839.72;5025933;28;20130;-62
2021/11/15 09:57:24;;;;;;;7.75;5.80;;;;;;;26.16;32.20;100857.22;5022051;28;20060;-61
2021/11/15 09:59:51;;;;;;;8.88;6.15;;;;;;;25.95;31.64;100851.94;5026921;28;20078;-62
2021/11/15 10:02:17;;;;;;;6.40;4.82;;;;;;;25.83;32.11;100854.94;5028369;28;20438;-62
2021/11/15 10:04:45;;;;;;;10.27;5.53;;;;;;;25.67;31.63;100851.28;5023233;28;20047;-60
2021/11/15 10:07:13;;;;;;;7.00;5.50;;;;;;;25.66;31.48;100846.78;5025625;28;20057;-60
2021/11/15 10:09:42;;;;;;;10.07;5.35;;;;;;;25.33;31.32;100861.56;5022762;28;20116;-60
2021/11/15 10:12:14;;;;;;;10.00;5.90;;;;;;;25.15;32.05;100847.69;5024526;28;20100;-60
2021/11/15 10:15:07;;;;;;;9.10;5.50;;;;;;;24.99;32.33;100870.56;5004795;28;20128;-62
2021/11/15 10:17:44;;;;;;;9.18;5.70;;;;;;;25.26;31.95;100857.38;5008916;28;20084;-63
2021/11/15 10:20:13;;;;;;;6.95;4.90;;;;;;;25.59;31.36;100858.88;5014689;28;20815;-57
2021/11/15 10:22:40;;;;;;;7.25;5.60;;;;;;;25.71;31.36;100860.78;5025123;28;20501;-57
2021/11/15 10:25:08;;;;;;;8.32;5.90;;;;;;;26.02;30.91;100864.69;5030772;28;20057;-58
2021/11/15 10:27:37;;;;;;;9.88;5.47;;;;;;;26.39;30.73;100870.72;5029211;28;20132;-57
2021/11/15 10:30:13;;;;;;;7.90;5.85;;;;;;;26.74;30.42;100866.91;5020432;28;20398;-57
2021/11/15 10:32:43;;;;;;;7.78;5.20;;;;;;;26.80;29.84;100869.03;5022233;28;20038;-58
2021/11/15 10:35:10;;;;;;;9.07;5.88;;;;;;;26.86;29.86;100866.66;5023117;28;20137;-58
2021/11/15 10:37:40;;;;;;;6.95;5.70;;;;;;;27.36;29.49;100864.63;5029963;28;20089;-58
2021/11/15 10:40:17;;;;;;;6.57;5.00;;;;;;;27.72;29.33;100848.69;5012841;28;20077;-58
2021/11/15 10:42:50;;;;;;;7.45;4.95;;;;;;;27.79;29.19;100850.84;5026753;28;20069;-59
2021/11/15 10:45:24;;;;;;;8.98;5.55;;;;;;;28.11;28.59;100862.72;5017574;28;20497;-59
2021/11/15 10:47:58;;;;;;;6.93;5.10;;;;;;;28.51;28.35;100884.94;5017603;28;20473;-59
2021/11/15 10:50:33;;;;;;;10.15;4.78;;;;;;;28.82;27.81;100882.72;5017995;28;20096;-59
2021/11/15 10:53:03;;;;;;;6.28;4.40;;;;;;;29.09;27.55;100885.44;5019082;28;20045;-59
2021/11/15 10:55:40;;;;;;;8.07;5.47;;;;;;;29.38;27.29;100878.66;5029712;28;20132;-60
2021/11/15 10:58:21;;;;;;;7.10;4.82;;;;;;;29.80;26.51;100876.44;5017639;28;20561;-59
2021/11/15 11:00:52;;;;;;;6.55;5.13;;;;;;;30.14;26.35;100876.97;5018481;28;20517;-59
2021/11/15 11:03:22;;;;;;;7.38;5.22;;;;;;;30.28;25.93;100885.69;5013862;28;20111;-59
2021/11/15 11:05:52;;;;;;;6.72;4.75;;;;;;;30.32;25.62;100877.88;5031299;28;20045;-58
2021/11/15 11:08:48;;;;;;;10.52;5.32;;;;;;;30.32;26.06;100871.28;5030259;28;20476;-59
2021/11/15 11:11:17;;;;;;;8.73;4.75;;;;;;;30.60;25.50;100851.16;5016130;28;20580;-59
2021/11/15 11:14:03;;;;;;;11.45;5.60;;;;;;;31.15;25.31;100855.69;5014953;28;20094;-58
2021/11/15 11:16:38;;;;;;;7.97;5.03;;;;;;;31.64;24.63;100848.16;5023390;28;20073;-59
2021/11/15 11:24:59;;;;;;;;;;;;;;;32.46;25.36;100865.09;5017726;28;20132;-58
2021/11/15 11:27:27;;;;;;;7.70;5.55;;;;;;;32.63;23.17;100857.53;5019762;28;20007;-58
2021/11/15 11:29:56;;;;;;;7.32;5.30;;;;;;;32.96;23.46;100858.13;5028538;28;20041;-57
2021/11/15 11:32:25;;;;;;;6.80;5.25;;;;;;;33.19;23.04;100854.56;5023548;28;20136;-58
2021/11/15 11:34:56;;;;;;;8.15;5.22;;;;;;;33.31;22.88;100838.75;5016610;28;20081;-58